Terminal Aerodrome Forecast
Issued by NWS

Home | Current Version | Previous Version | Text Only | Print | Product List | Glossary On
Versions: 1 2 3 4 5 6 7 8 9 10 11 12 13 14 15 16 17 18 19 20 21 22 23 24 25
000
FTUS45 KRIW 032300
TAFPNA
TAF
KPNA 032324Z 0400/0424 VRB11KT P6SM VCTS SCT060CB BKN120
      TEMPO 0400/0402 VRB15G25KT
     FM040200 VRB10G15KT P6SM VCSH BKN100
     FM040500 26005KT P6SM SCT120
     FM042000 31008KT P6SM SCT200
      AMD LTD TO CLD VIS AND WIND=

USA.gov is the U.S. government's official web portal to all federal, state and local government web resources and services.